Weather at Mount Belcher Heliport

Public forecast

Using degrees Celsius for public forecast. Weather courtesy of forecast.io.

Closest aviation weather report (METAR) to Mount Belcher Heliport

Closest report is Victoria International Airport, 11.6 nm (21.4 km) SSE.

2024/05/30 08:00 (retrieved 49 minutes ago)

CYYJ 300800Z 29009KT 20SM FEW075 FEW170 09/05 A3036 RMK AC1AC1 AC TR AC TR SLP282

Closest aviation forecast (TAF) to Mount Belcher Heliport

Closest forecast is Victoria International Airport, 11.6 nm (21.4 km) SSE.

2024/05/30 06:42 (retrieved 2 hours ago)

TAF CYYJ 300540Z 3006/3106 25008KT P6SM FEW080 SCT200 FM301100 27006KT P6SM BKN030 BECMG 3018/3020 12008KT FEW030 RMK NXT FCST BY 301200Z